sensor_id;sensor_type;location;lat;lon;timestamp;P1;durP1;ratioP1;P2;durP2;ratioP2
67675;SDS011;54456;48.436;10.028;2024-01-15T00:00:30;20.30;;;7.07;;
67675;SDS011;54456;48.436;10.028;2024-01-15T00:02:00;12.50;;;3.93;;
67675;SDS011;54456;48.436;10.028;2024-01-15T00:03:30;12.57;;;4.17;;
67675;SDS011;54456;48.436;10.028;2024-01-15T00:05:01;26.27;;;7.33;;
67675;SDS011;54456;48.436;10.028;2024-01-15T00:06:31;18.47;;;6.20;;
67675;SDS011;54456;48.436;10.028;2024-01-15T00:08:03;22.88;;;7.38;;
67675;SDS011;54456;48.436;10.028;2024-01-15T00:09:34;21.02;;;7.30;;
67675;SDS011;54456;48.436;10.028;2024-01-15T00:11:05;10.95;;;3.58;;
67675;SDS011;54456;48.436;10.028;2024-01-15T00:12:35;24.30;;;7.37;;
67675;SDS011;54456;48.436;10.028;2024-01-15T00:14:06;6.40;;;2.90;;
67675;SDS011;54456;48.436;10.028;2024-01-15T00:15:36;24.13;;;7.43;;
67675;SDS011;54456;48.436;10.028;2024-01-15T00:17:06;8.87;;;3.23;;
67675;SDS011;54456;48.436;10.028;2024-01-15T00:18:37;16.37;;;4.73;;
67675;SDS011;54456;48.436;10.028;2024-01-15T00:20:07;11.80;;;3.70;;
67675;SDS011;54456;48.436;10.028;2024-01-15T00:21:38;18.00;;;6.07;;
67675;SDS011;54456;48.436;10.028;2024-01-15T00:23:08;6.07;;;2.57;;
67675;SDS011;54456;48.436;10.028;2024-01-15T00:24:39;17.77;;;5.57;;
67675;SDS011;54456;48.436;10.028;2024-01-15T00:26:09;12.97;;;3.63;;
67675;SDS011;54456;48.436;10.028;2024-01-15T00:27:40;12.95;;;3.85;;
67675;SDS011;54456;48.436;10.028;2024-01-15T00:29:10;10.65;;;2.95;;
67675;SDS011;54456;48.436;10.028;2024-01-15T04:17:28;9.60;;;2.72;;
67675;SDS011;54456;48.436;10.028;2024-01-15T04:18:58;5.13;;;1.25;;
67675;SDS011;54456;48.436;10.028;2024-01-15T04:20:29;6.83;;;2.43;;
67675;SDS011;54456;48.436;10.028;2024-01-15T04:21:59;7.60;;;2.42;;
67675;SDS011;54456;48.436;10.028;2024-01-15T04:23:29;10.80;;;3.00;;
67675;SDS011;54456;48.436;10.028;2024-01-15T04:25:00;13.47;;;3.30;;
67675;SDS011;54456;48.436;10.028;2024-01-15T04:26:30;15.57;;;3.03;;
67675;SDS011;54456;48.436;10.028;2024-01-15T04:28:00;8.33;;;2.33;;
67675;SDS011;54456;48.436;10.028;2024-01-15T04:29:31;6.93;;;3.38;;
67675;SDS011;54456;48.436;10.028;2024-01-15T04:31:01;6.68;;;2.20;;
67675;SDS011;54456;48.436;10.028;2024-01-15T04:32:32;10.70;;;2.88;;
67675;SDS011;54456;48.436;10.028;2024-01-15T04:34:02;11.60;;;3.27;;
67675;SDS011;54456;48.436;10.028;2024-01-15T04:35:32;8.00;;;2.50;;
67675;SDS011;54456;48.436;10.028;2024-01-15T04:37:03;13.50;;;4.13;;
67675;SDS011;54456;48.436;10.028;2024-01-15T04:38:34;6.83;;;2.23;;
67675;SDS011;54456;48.436;10.028;2024-01-15T04:40:06;5.20;;;2.10;;
67675;SDS011;54456;48.436;10.028;2024-01-15T04:41:37;11.80;;;3.58;;
67675;SDS011;54456;48.436;10.028;2024-01-15T04:43:07;10.97;;;3.20;;
67675;SDS011;54456;48.436;10.028;2024-01-15T04:44:38;12.10;;;3.50;;
67675;SDS011;54456;48.436;10.028;2024-01-15T04:46:08;8.77;;;2.40;;
67675;SDS011;54456;48.436;10.028;2024-01-15T04:47:39;7.28;;;2.40;;
67675;SDS011;54456;48.436;10.028;2024-01-15T04:49:09;5.97;;;2.17;;
67675;SDS011;54456;48.436;10.028;2024-01-15T04:50:40;9.00;;;2.90;;
67675;SDS011;54456;48.436;10.028;2024-01-15T04:52:10;14.97;;;4.33;;
67675;SDS011;54456;48.436;10.028;2024-01-15T04:53:41;9.05;;;2.83;;
67675;SDS011;54456;48.436;10.028;2024-01-15T04:55:11;9.57;;;3.15;;
67675;SDS011;54456;48.436;10.028;2024-01-15T04:56:41;6.87;;;2.50;;
67675;SDS011;54456;48.436;10.028;2024-01-15T04:58:12;11.63;;;3.17;;
67675;SDS011;54456;48.436;10.028;2024-01-15T04:59:42;19.43;;;4.93;;
67675;SDS011;54456;48.436;10.028;2024-01-15T05:01:12;6.83;;;1.80;;
67675;SDS011;54456;48.436;10.028;2024-01-15T05:02:43;8.90;;;2.90;;
67675;SDS011;54456;48.436;10.028;2024-01-15T05:04:13;3.83;;;1.60;;
67675;SDS011;54456;48.436;10.028;2024-01-15T05:05:43;8.35;;;2.60;;
67675;SDS011;54456;48.436;10.028;2024-01-15T05:07:14;9.63;;;2.97;;
67675;SDS011;54456;48.436;10.028;2024-01-15T05:08:44;11.63;;;3.77;;
67675;SDS011;54456;48.436;10.028;2024-01-15T05:10:14;6.37;;;2.30;;
67675;SDS011;54456;48.436;10.028;2024-01-15T05:11:45;7.67;;;2.87;;
67675;SDS011;54456;48.436;10.028;2024-01-15T05:13:15;9.43;;;2.90;;
67675;SDS011;54456;48.436;10.028;2024-01-15T05:14:45;11.23;;;2.67;;
67675;SDS011;54456;48.436;10.028;2024-01-15T05:16:16;9.67;;;2.77;;
67675;SDS011;54456;48.436;10.028;2024-01-15T05:17:46;8.80;;;2.50;;
67675;SDS011;54456;48.436;10.028;2024-01-15T05:19:16;11.90;;;3.40;;
67675;SDS011;54456;48.436;10.028;2024-01-15T05:20:48;8.68;;;2.75;;
67675;SDS011;54456;48.436;10.028;2024-01-15T05:22:18;8.43;;;2.53;;
67675;SDS011;54456;48.436;10.028;2024-01-15T05:23:48;8.07;;;2.93;;
67675;SDS011;54456;48.436;10.028;2024-01-15T05:25:19;10.37;;;3.57;;
67675;SDS011;54456;48.436;10.028;2024-01-15T05:26:49;11.43;;;3.33;;
67675;SDS011;54456;48.436;10.028;2024-01-15T05:28:19;6.78;;;2.47;;
67675;SDS011;54456;48.436;10.028;2024-01-15T05:29:50;5.63;;;1.83;;
67675;SDS011;54456;48.436;10.028;2024-01-15T05:31:20;9.18;;;2.45;;
67675;SDS011;54456;48.436;10.028;2024-01-15T05:32:51;8.50;;;2.38;;
67675;SDS011;54456;48.436;10.028;2024-01-15T05:34:21;11.80;;;3.30;;
67675;SDS011;54456;48.436;10.028;2024-01-15T05:35:51;3.07;;;1.50;;
67675;SDS011;54456;48.436;10.028;2024-01-15T05:37:23;7.97;;;3.00;;
67675;SDS011;54456;48.436;10.028;2024-01-15T05:38:53;8.47;;;2.47;;
67675;SDS011;54456;48.436;10.028;2024-01-15T05:40:24;8.47;;;2.93;;
67675;SDS011;54456;48.436;10.028;2024-01-15T05:41:54;2.27;;;1.20;;
67675;SDS011;54456;48.436;10.028;2024-01-15T05:43:24;10.40;;;3.10;;
67675;SDS011;54456;48.436;10.028;2024-01-15T05:44:55;6.83;;;2.57;;
67675;SDS011;54456;48.436;10.028;2024-01-15T05:46:25;8.68;;;2.78;;
67675;SDS011;54456;48.436;10.028;2024-01-15T05:47:55;5.03;;;1.73;;
67675;SDS011;54456;48.436;10.028;2024-01-15T05:49:26;8.98;;;2.90;;
67675;SDS011;54456;48.436;10.028;2024-01-15T05:50:56;5.93;;;2.03;;
67675;SDS011;54456;48.436;10.028;2024-01-15T05:52:26;9.13;;;2.40;;
67675;SDS011;54456;48.436;10.028;2024-01-15T05:53:57;8.57;;;2.30;;
67675;SDS011;54456;48.436;10.028;2024-01-15T05:55:27;4.00;;;1.40;;
67675;SDS011;54456;48.436;10.028;2024-01-15T05:56:57;7.07;;;1.93;;
67675;SDS011;54456;48.436;10.028;2024-01-15T05:58:28;7.07;;;2.43;;
67675;SDS011;54456;48.436;10.028;2024-01-15T05:59:58;10.10;;;3.08;;
67675;SDS011;54456;48.436;10.028;2024-01-15T06:01:28;8.33;;;3.27;;
67675;SDS011;54456;48.436;10.028;2024-01-15T06:02:59;9.35;;;2.30;;
67675;SDS011;54456;48.436;10.028;2024-01-15T06:04:29;9.32;;;2.88;;
67675;SDS011;54456;48.436;10.028;2024-01-15T06:06:00;4.97;;;1.83;;
67675;SDS011;54456;48.436;10.028;2024-01-15T06:07:30;6.50;;;2.13;;
67675;SDS011;54456;48.436;10.028;2024-01-15T06:09:00;8.97;;;2.33;;
67675;SDS011;54456;48.436;10.028;2024-01-15T06:10:35;6.57;;;2.17;;
67675;SDS011;54456;48.436;10.028;2024-01-15T06:12:07;6.20;;;1.70;;
67675;SDS011;54456;48.436;10.028;2024-01-15T06:13:37;11.30;;;3.15;;
67675;SDS011;54456;48.436;10.028;2024-01-15T06:15:08;9.30;;;2.80;;
67675;SDS011;54456;48.436;10.028;2024-01-15T06:16:38;7.65;;;2.50;;
67675;SDS011;54456;48.436;10.028;2024-01-15T06:18:09;4.88;;;1.85;;
67675;SDS011;54456;48.436;10.028;2024-01-15T06:19:39;4.53;;;1.15;;
67675;SDS011;54456;48.436;10.028;2024-01-15T06:21:10;9.23;;;2.58;;
67675;SDS011;54456;48.436;10.028;2024-01-15T06:22:42;7.07;;;2.45;;
67675;SDS011;54456;48.436;10.028;2024-01-15T06:24:13;10.90;;;3.00;;
67675;SDS011;54456;48.436;10.028;2024-01-15T06:25:43;8.60;;;2.28;;
67675;SDS011;54456;48.436;10.028;2024-01-15T06:27:13;8.10;;;2.47;;
67675;SDS011;54456;48.436;10.028;2024-01-15T06:28:44;8.60;;;2.60;;
67675;SDS011;54456;48.436;10.028;2024-01-15T06:30:14;4.33;;;1.57;;
67675;SDS011;54456;48.436;10.028;2024-01-15T06:31:45;5.90;;;1.92;;
67675;SDS011;54456;48.436;10.028;2024-01-15T06:33:15;6.20;;;1.83;;
67675;SDS011;54456;48.436;10.028;2024-01-15T06:34:45;8.87;;;2.80;;
67675;SDS011;54456;48.436;10.028;2024-01-15T06:36:16;6.78;;;2.20;;
67675;SDS011;54456;48.436;10.028;2024-01-15T06:37:46;9.23;;;3.30;;
67675;SDS011;54456;48.436;10.028;2024-01-15T06:39:16;5.50;;;2.10;;
67675;SDS011;54456;48.436;10.028;2024-01-15T06:40:47;9.40;;;2.93;;
67675;SDS011;54456;48.436;10.028;2024-01-15T06:42:18;6.47;;;2.20;;
67675;SDS011;54456;48.436;10.028;2024-01-15T06:43:48;8.35;;;2.70;;
67675;SDS011;54456;48.436;10.028;2024-01-15T06:45:19;10.07;;;2.37;;
67675;SDS011;54456;48.436;10.028;2024-01-15T06:46:49;9.53;;;3.20;;
67675;SDS011;54456;48.436;10.028;2024-01-15T06:48:19;7.60;;;2.77;;
67675;SDS011;54456;48.436;10.028;2024-01-15T06:49:49;9.40;;;2.50;;
67675;SDS011;54456;48.436;10.028;2024-01-15T06:51:21;8.82;;;2.55;;
67675;SDS011;54456;48.436;10.028;2024-01-15T06:52:52;4.33;;;1.33;;
67675;SDS011;54456;48.436;10.028;2024-01-15T06:54:22;5.37;;;2.20;;
67675;SDS011;54456;48.436;10.028;2024-01-15T06:55:53;6.38;;;2.17;;
67675;SDS011;54456;48.436;10.028;2024-01-15T06:57:24;5.53;;;2.23;;
67675;SDS011;54456;48.436;10.028;2024-01-15T06:58:54;5.43;;;1.95;;
67675;SDS011;54456;48.436;10.028;2024-01-15T07:00:25;12.80;;;3.05;;
67675;SDS011;54456;48.436;10.028;2024-01-15T07:01:55;6.55;;;2.10;;
67675;SDS011;54456;48.436;10.028;2024-01-15T07:03:26;8.27;;;2.05;;
67675;SDS011;54456;48.436;10.028;2024-01-15T07:04:56;7.40;;;2.70;;
67675;SDS011;54456;48.436;10.028;2024-01-15T07:06:26;6.80;;;1.90;;
67675;SDS011;54456;48.436;10.028;2024-01-15T07:07:57;11.47;;;4.03;;
67675;SDS011;54456;48.436;10.028;2024-01-15T07:09:27;11.05;;;2.63;;
67675;SDS011;54456;48.436;10.028;2024-01-15T07:10:57;15.77;;;4.83;;
67675;SDS011;54456;48.436;10.028;2024-01-15T07:12:28;6.77;;;2.23;;
67675;SDS011;54456;48.436;10.028;2024-01-15T07:13:58;20.35;;;5.80;;
67675;SDS011;54456;48.436;10.028;2024-01-15T07:15:28;14.43;;;4.00;;
67675;SDS011;54456;48.436;10.028;2024-01-15T07:16:59;5.00;;;1.73;;
67675;SDS011;54456;48.436;10.028;2024-01-15T07:18:29;11.95;;;3.80;;
67675;SDS011;54456;48.436;10.028;2024-01-15T07:20:00;7.47;;;2.70;;
67675;SDS011;54456;48.436;10.028;2024-01-15T07:21:30;8.43;;;2.80;;
67675;SDS011;54456;48.436;10.028;2024-01-15T07:23:01;8.30;;;3.20;;
67675;SDS011;54456;48.436;10.028;2024-01-15T07:24:32;11.52;;;3.90;;
67675;SDS011;54456;48.436;10.028;2024-01-15T07:26:04;9.93;;;3.60;;
67675;SDS011;54456;48.436;10.028;2024-01-15T07:27:35;8.02;;;2.90;;
67675;SDS011;54456;48.436;10.028;2024-01-15T07:29:05;13.87;;;4.20;;
67675;SDS011;54456;48.436;10.028;2024-01-15T07:30:35;11.10;;;3.77;;
67675;SDS011;54456;48.436;10.028;2024-01-15T07:32:08;5.45;;;1.92;;
67675;SDS011;54456;48.436;10.028;2024-01-15T07:33:39;13.90;;;5.10;;
67675;SDS011;54456;48.436;10.028;2024-01-15T07:35:09;8.43;;;2.77;;
67675;SDS011;54456;48.436;10.028;2024-01-15T07:36:40;14.00;;;4.60;;
67675;SDS011;54456;48.436;10.028;2024-01-15T07:38:10;13.07;;;3.87;;
67675;SDS011;54456;48.436;10.028;2024-01-15T07:39:41;8.95;;;2.88;;
67675;SDS011;54456;48.436;10.028;2024-01-15T07:41:13;9.77;;;3.17;;
67675;SDS011;54456;48.436;10.028;2024-01-15T07:42:43;14.90;;;4.93;;
67675;SDS011;54456;48.436;10.028;2024-01-15T07:44:14;13.53;;;3.57;;
67675;SDS011;54456;48.436;10.028;2024-01-15T07:45:44;12.60;;;4.32;;
67675;SDS011;54456;48.436;10.028;2024-01-15T07:47:15;10.65;;;3.78;;
67675;SDS011;54456;48.436;10.028;2024-01-15T07:48:46;9.50;;;2.87;;
67675;SDS011;54456;48.436;10.028;2024-01-15T07:50:16;8.80;;;3.03;;
67675;SDS011;54456;48.436;10.028;2024-01-15T07:51:46;13.20;;;4.85;;
67675;SDS011;54456;48.436;10.028;2024-01-15T07:53:17;9.50;;;2.90;;
67675;SDS011;54456;48.436;10.028;2024-01-15T07:54:47;12.63;;;3.83;;
67675;SDS011;54456;48.436;10.028;2024-01-15T07:56:17;9.83;;;2.47;;
67675;SDS011;54456;48.436;10.028;2024-01-15T07:57:48;13.07;;;3.30;;
67675;SDS011;54456;48.436;10.028;2024-01-15T07:59:18;11.40;;;3.92;;
67675;SDS011;54456;48.436;10.028;2024-01-15T08:00:48;13.17;;;4.70;;
67675;SDS011;54456;48.436;10.028;2024-01-15T08:02:19;9.57;;;2.83;;
67675;SDS011;54456;48.436;10.028;2024-01-15T08:03:49;10.98;;;3.25;;
67675;SDS011;54456;48.436;10.028;2024-01-15T08:05:19;8.37;;;2.57;;
67675;SDS011;54456;48.436;10.028;2024-01-15T08:06:50;3.03;;;1.52;;
67675;SDS011;54456;48.436;10.028;2024-01-15T08:08:21;9.13;;;2.30;;
67675;SDS011;54456;48.436;10.028;2024-01-15T08:09:52;8.67;;;2.50;;
67675;SDS011;54456;48.436;10.028;2024-01-15T08:11:22;11.38;;;2.90;;
67675;SDS011;54456;48.436;10.028;2024-01-15T08:12:53;8.63;;;2.53;;
67675;SDS011;54456;48.436;10.028;2024-01-15T08:14:23;10.13;;;3.40;;
67675;SDS011;54456;48.436;10.028;2024-01-15T08:15:53;10.63;;;3.03;;
67675;SDS011;54456;48.436;10.028;2024-01-15T08:17:23;12.13;;;3.37;;
67675;SDS011;54456;48.436;10.028;2024-01-15T08:18:58;9.25;;;2.60;;
67675;SDS011;54456;48.436;10.028;2024-01-15T08:20:28;4.93;;;1.85;;
67675;SDS011;54456;48.436;10.028;2024-01-15T08:21:59;7.33;;;2.73;;
67675;SDS011;54456;48.436;10.028;2024-01-15T08:23:30;8.23;;;2.63;;
67675;SDS011;54456;48.436;10.028;2024-01-15T08:25:01;6.00;;;2.00;;
67675;SDS011;54456;48.436;10.028;2024-01-15T08:26:31;6.30;;;2.07;;
67675;SDS011;54456;48.436;10.028;2024-01-15T08:28:05;11.00;;;3.17;;
67675;SDS011;54456;48.436;10.028;2024-01-15T08:29:35;8.00;;;2.83;;
67675;SDS011;54456;48.436;10.028;2024-01-15T08:31:05;6.03;;;1.77;;
67675;SDS011;54456;48.436;10.028;2024-01-15T08:32:36;6.07;;;2.17;;
67675;SDS011;54456;48.436;10.028;2024-01-15T08:34:10;7.70;;;2.30;;
67675;SDS011;54456;48.436;10.028;2024-01-15T08:35:41;6.67;;;2.40;;
67675;SDS011;54456;48.436;10.028;2024-01-15T08:37:11;6.93;;;2.00;;
67675;SDS011;54456;48.436;10.028;2024-01-15T08:38:41;6.90;;;2.10;;
67675;SDS011;54456;48.436;10.028;2024-01-15T08:40:12;9.93;;;2.50;;
67675;SDS011;54456;48.436;10.028;2024-01-15T08:41:43;5.78;;;2.25;;
67675;SDS011;54456;48.436;10.028;2024-01-15T08:43:13;6.37;;;2.13;;
67675;SDS011;54456;48.436;10.028;2024-01-15T08:44:44;6.97;;;2.07;;
67675;SDS011;54456;48.436;10.028;2024-01-15T08:46:14;8.03;;;1.93;;
67675;SDS011;54456;48.436;10.028;2024-01-15T08:47:44;6.70;;;2.10;;
67675;SDS011;54456;48.436;10.028;2024-01-15T08:49:14;4.87;;;1.50;;
67675;SDS011;54456;48.436;10.028;2024-01-15T08:50:45;6.03;;;1.90;;
67675;SDS011;54456;48.436;10.028;2024-01-15T08:52:18;11.38;;;2.40;;
67675;SDS011;54456;48.436;10.028;2024-01-15T08:53:50;7.25;;;2.58;;
67675;SDS011;54456;48.436;10.028;2024-01-15T08:55:20;8.00;;;2.50;;
67675;SDS011;54456;48.436;10.028;2024-01-15T08:56:52;3.22;;;1.38;;
67675;SDS011;54456;48.436;10.028;2024-01-15T08:58:23;5.32;;;2.47;;
67675;SDS011;54456;48.436;10.028;2024-01-15T08:59:54;7.50;;;2.53;;
67675;SDS011;54456;48.436;10.028;2024-01-15T09:01:24;9.65;;;2.50;;
67675;SDS011;54456;48.436;10.028;2024-01-15T09:02:55;7.60;;;2.30;;
67675;SDS011;54456;48.436;10.028;2024-01-15T09:04:26;8.15;;;2.45;;
67675;SDS011;54456;48.436;10.028;2024-01-15T09:05:56;6.32;;;2.15;;
67675;SDS011;54456;48.436;10.028;2024-01-15T09:07:27;9.77;;;2.40;;
67675;SDS011;54456;48.436;10.028;2024-01-15T09:08:57;11.23;;;3.92;;
67675;SDS011;54456;48.436;10.028;2024-01-15T09:10:27;7.73;;;2.53;;
67675;SDS011;54456;48.436;10.028;2024-01-15T09:11:58;8.90;;;1.92;;
67675;SDS011;54456;48.436;10.028;2024-01-15T09:13:29;8.98;;;2.42;;
67675;SDS011;54456;48.436;10.028;2024-01-15T09:14:59;6.38;;;2.28;;
67675;SDS011;54456;48.436;10.028;2024-01-15T09:16:29;3.83;;;1.67;;
67675;SDS011;54456;48.436;10.028;2024-01-15T09:18:00;8.18;;;2.65;;
67675;SDS011;54456;48.436;10.028;2024-01-15T09:19:32;9.23;;;2.70;;
67675;SDS011;54456;48.436;10.028;2024-01-15T09:21:03;7.87;;;2.03;;
67675;SDS011;54456;48.436;10.028;2024-01-15T09:22:33;5.82;;;1.80;;
67675;SDS011;54456;48.436;10.028;2024-01-15T09:24:04;2.80;;;1.33;;
67675;SDS011;54456;48.436;10.028;2024-01-15T09:25:34;9.57;;;2.90;;
67675;SDS011;54456;48.436;10.028;2024-01-15T09:27:05;7.15;;;2.15;;
67675;SDS011;54456;48.436;10.028;2024-01-15T09:28:35;6.87;;;2.07;;
67675;SDS011;54456;48.436;10.028;2024-01-15T09:30:05;7.30;;;1.95;;
67675;SDS011;54456;48.436;10.028;2024-01-15T09:31:36;4.82;;;1.73;;
67675;SDS011;54456;48.436;10.028;2024-01-15T09:33:06;8.87;;;3.10;;
67675;SDS011;54456;48.436;10.028;2024-01-15T09:34:37;6.07;;;1.92;;
67675;SDS011;54456;48.436;10.028;2024-01-15T09:36:07;2.97;;;1.40;;
67675;SDS011;54456;48.436;10.028;2024-01-15T09:37:38;7.28;;;2.20;;
67675;SDS011;54456;48.436;10.028;2024-01-15T09:39:09;7.55;;;2.20;;
67675;SDS011;54456;48.436;10.028;2024-01-15T09:40:42;8.43;;;2.03;;
67675;SDS011;54456;48.436;10.028;2024-01-15T09:42:13;5.85;;;1.75;;
67675;SDS011;54456;48.436;10.028;2024-01-15T09:43:43;7.25;;;2.42;;
67675;SDS011;54456;48.436;10.028;2024-01-15T09:45:14;5.40;;;1.35;;
67675;SDS011;54456;48.436;10.028;2024-01-15T09:46:45;5.47;;;1.98;;
67675;SDS011;54456;48.436;10.028;2024-01-15T09:48:16;6.15;;;1.80;;
67675;SDS011;54456;48.436;10.028;2024-01-15T09:49:47;4.82;;;1.85;;
67675;SDS011;54456;48.436;10.028;2024-01-15T09:51:18;4.25;;;1.35;;
67675;SDS011;54456;48.436;10.028;2024-01-15T09:52:49;6.90;;;1.92;;
67675;SDS011;54456;48.436;10.028;2024-01-15T09:54:20;9.05;;;2.65;;
67675;SDS011;54456;48.436;10.028;2024-01-15T09:55:51;8.18;;;2.40;;
67675;SDS011;54456;48.436;10.028;2024-01-15T09:57:23;5.93;;;1.90;;
67675;SDS011;54456;48.436;10.028;2024-01-15T09:58:53;4.88;;;1.98;;
67675;SDS011;54456;48.436;10.028;2024-01-15T10:00:23;6.53;;;1.80;;
67675;SDS011;54456;48.436;10.028;2024-01-15T10:01:54;5.82;;;2.22;;
67675;SDS011;54456;48.436;10.028;2024-01-15T10:03:25;4.75;;;1.55;;
67675;SDS011;54456;48.436;10.028;2024-01-15T10:04:56;6.50;;;1.80;;
67675;SDS011;54456;48.436;10.028;2024-01-15T10:06:26;6.97;;;2.10;;
67675;SDS011;54456;48.436;10.028;2024-01-15T10:08:00;6.28;;;1.63;;
67675;SDS011;54456;48.436;10.028;2024-01-15T10:09:30;4.70;;;1.90;;
67675;SDS011;54456;48.436;10.028;2024-01-15T10:11:01;11.27;;;2.70;;
67675;SDS011;54456;48.436;10.028;2024-01-15T10:12:31;10.53;;;2.00;;
67675;SDS011;54456;48.436;10.028;2024-01-15T10:14:02;6.03;;;2.10;;
67675;SDS011;54456;48.436;10.028;2024-01-15T10:15:37;5.32;;;2.03;;
67675;SDS011;54456;48.436;10.028;2024-01-15T10:17:14;7.57;;;2.17;;
67675;SDS011;54456;48.436;10.028;2024-01-15T10:18:45;7.47;;;2.13;;
67675;SDS011;54456;48.436;10.028;2024-01-15T10:20:15;3.90;;;1.50;;
67675;SDS011;54456;48.436;10.028;2024-01-15T10:21:46;5.95;;;1.60;;
67675;SDS011;54456;48.436;10.028;2024-01-15T10:23:16;3.17;;;1.42;;
67675;SDS011;54456;48.436;10.028;2024-01-15T10:24:47;5.20;;;1.60;;
67675;SDS011;54456;48.436;10.028;2024-01-15T10:26:17;7.72;;;1.98;;
67675;SDS011;54456;48.436;10.028;2024-01-15T10:27:52;5.30;;;1.97;;
67675;SDS011;54456;48.436;10.028;2024-01-15T10:29:29;5.03;;;1.50;;
67675;SDS011;54456;48.436;10.028;2024-01-15T10:31:00;3.30;;;1.37;;
67675;SDS011;54456;48.436;10.028;2024-01-15T10:32:30;5.13;;;1.73;;
67675;SDS011;54456;48.436;10.028;2024-01-15T10:34:09;4.67;;;1.60;;
67675;SDS011;54456;48.436;10.028;2024-01-15T10:35:42;2.75;;;1.17;;
67675;SDS011;54456;48.436;10.028;2024-01-15T10:37:12;3.97;;;1.50;;
67675;SDS011;54456;48.436;10.028;2024-01-15T10:38:43;4.37;;;1.53;;
67675;SDS011;54456;48.436;10.028;2024-01-15T10:40:14;6.38;;;1.85;;
67675;SDS011;54456;48.436;10.028;2024-01-15T10:41:44;5.93;;;1.95;;
67675;SDS011;54456;48.436;10.028;2024-01-15T10:43:15;2.67;;;1.17;;
67675;SDS011;54456;48.436;10.028;2024-01-15T10:44:45;4.30;;;1.53;;
67675;SDS011;54456;48.436;10.028;2024-01-15T10:46:18;4.25;;;1.60;;
67675;SDS011;54456;48.436;10.028;2024-01-15T10:47:48;4.03;;;1.40;;
67675;SDS011;54456;48.436;10.028;2024-01-15T10:49:19;5.28;;;1.52;;
67675;SDS011;54456;48.436;10.028;2024-01-15T10:50:50;7.53;;;1.52;;
67675;SDS011;54456;48.436;10.028;2024-01-15T10:52:20;3.27;;;1.20;;
67675;SDS011;54456;48.436;10.028;2024-01-15T10:53:52;3.30;;;1.13;;
67675;SDS011;54456;48.436;10.028;2024-01-15T10:55:24;3.58;;;1.27;;
67675;SDS011;54456;48.436;10.028;2024-01-15T10:56:55;3.00;;;1.27;;
67675;SDS011;54456;48.436;10.028;2024-01-15T10:58:26;5.05;;;1.33;;
67675;SDS011;54456;48.436;10.028;2024-01-15T10:59:59;4.78;;;1.60;;
67675;SDS011;54456;48.436;10.028;2024-01-15T11:01:30;3.83;;;1.30;;
67675;SDS011;54456;48.436;10.028;2024-01-15T11:03:01;4.30;;;1.40;;
67675;SDS011;54456;48.436;10.028;2024-01-15T11:04:32;3.05;;;1.10;;
67675;SDS011;54456;48.436;10.028;2024-01-15T11:06:02;5.53;;;1.20;;
67675;SDS011;54456;48.436;10.028;2024-01-15T11:07:33;3.97;;;1.20;;
67675;SDS011;54456;48.436;10.028;2024-01-15T11:09:04;3.55;;;1.10;;
67675;SDS011;54456;48.436;10.028;2024-01-15T11:12:11;2.70;;;1.08;;
67675;SDS011;54456;48.436;10.028;2024-01-15T11:13:43;4.82;;;1.40;;
67675;SDS011;54456;48.436;10.028;2024-01-15T11:15:19;4.07;;;1.20;;
67675;SDS011;54456;48.436;10.028;2024-01-15T11:16:54;3.08;;;1.27;;
67675;SDS011;54456;48.436;10.028;2024-01-15T11:18:32;2.78;;;1.02;;
67675;SDS011;54456;48.436;10.028;2024-01-15T11:20:05;4.93;;;1.42;;
67675;SDS011;54456;48.436;10.028;2024-01-15T11:21:41;3.85;;;1.35;;
67675;SDS011;54456;48.436;10.028;2024-01-15T11:23:13;0.90;;;0.47;;
67675;SDS011;54456;48.436;10.028;2024-01-15T11:25:17;2.85;;;0.90;;
67675;SDS011;54456;48.436;10.028;2024-01-15T11:26:48;3.33;;;1.00;;
67675;SDS011;54456;48.436;10.028;2024-01-15T11:28:46;5.28;;;1.58;;
67675;SDS011;54456;48.436;10.028;2024-01-15T11:30:19;3.25;;;1.10;;
67675;SDS011;54456;48.436;10.028;2024-01-15T11:33:32;4.20;;;1.23;;
67675;SDS011;54456;48.436;10.028;2024-01-15T11:35:03;4.47;;;1.40;;
67675;SDS011;54456;48.436;10.028;2024-01-15T11:38:34;2.90;;;1.23;;
67675;SDS011;54456;48.436;10.028;2024-01-15T11:40:04;4.07;;;1.40;;
67675;SDS011;54456;48.436;10.028;2024-01-15T11:41:35;6.70;;;1.75;;
67675;SDS011;54456;48.436;10.028;2024-01-15T11:43:06;1.30;;;0.93;;
67675;SDS011;54456;48.436;10.028;2024-01-15T11:44:37;4.28;;;1.55;;
67675;SDS011;54456;48.436;10.028;2024-01-15T11:46:11;6.78;;;1.45;;
67675;SDS011;54456;48.436;10.028;2024-01-15T11:50:00;5.63;;;1.45;;
67675;SDS011;54456;48.436;10.028;2024-01-15T11:51:31;2.28;;;0.82;;
67675;SDS011;54456;48.436;10.028;2024-01-15T11:53:03;1.40;;;0.63;;
67675;SDS011;54456;48.436;10.028;2024-01-15T11:54:34;2.58;;;1.10;;
67675;SDS011;54456;48.436;10.028;2024-01-15T11:56:11;3.67;;;1.45;;
67675;SDS011;54456;48.436;10.028;2024-01-15T11:59:21;3.45;;;1.20;;
67675;SDS011;54456;48.436;10.028;2024-01-15T12:00:52;4.07;;;1.07;;
67675;SDS011;54456;48.436;10.028;2024-01-15T12:02:22;3.42;;;1.30;;
67675;SDS011;54456;48.436;10.028;2024-01-15T12:03:53;5.10;;;1.40;;
67675;SDS011;54456;48.436;10.028;2024-01-15T12:05:24;3.35;;;1.30;;
67675;SDS011;54456;48.436;10.028;2024-01-15T12:06:54;2.25;;;0.95;;
67675;SDS011;54456;48.436;10.028;2024-01-15T12:08:26;5.50;;;1.30;;
67675;SDS011;54456;48.436;10.028;2024-01-15T12:09:57;3.85;;;1.52;;
67675;SDS011;54456;48.436;10.028;2024-01-15T12:11:27;3.13;;;1.00;;
67675;SDS011;54456;48.436;10.028;2024-01-15T12:13:04;4.45;;;1.35;;
67675;SDS011;54456;48.436;10.028;2024-01-15T12:14:37;8.48;;;2.45;;
67675;SDS011;54456;48.436;10.028;2024-01-15T12:16:08;5.63;;;1.83;;
67675;SDS011;54456;48.436;10.028;2024-01-15T12:17:38;3.28;;;1.15;;
67675;SDS011;54456;48.436;10.028;2024-01-15T12:19:09;4.25;;;1.50;;
67675;SDS011;54456;48.436;10.028;2024-01-15T12:20:39;3.95;;;1.40;;
67675;SDS011;54456;48.436;10.028;2024-01-15T12:22:10;3.47;;;1.40;;
67675;SDS011;54456;48.436;10.028;2024-01-15T12:23:40;6.73;;;2.07;;
67675;SDS011;54456;48.436;10.028;2024-01-15T12:25:11;0.57;;;0.57;;
67675;SDS011;54456;48.436;10.028;2024-01-15T12:26:41;2.95;;;1.05;;
67675;SDS011;54456;48.436;10.028;2024-01-15T12:28:11;1.20;;;0.77;;
67675;SDS011;54456;48.436;10.028;2024-01-15T12:29:42;4.38;;;1.30;;
67675;SDS011;54456;48.436;10.028;2024-01-15T12:31:13;6.47;;;1.80;;
67675;SDS011;54456;48.436;10.028;2024-01-15T12:32:43;3.03;;;1.30;;
67675;SDS011;54456;48.436;10.028;2024-01-15T12:34:13;4.97;;;1.58;;
67675;SDS011;54456;48.436;10.028;2024-01-15T12:35:44;3.57;;;1.03;;
67675;SDS011;54456;48.436;10.028;2024-01-15T12:37:14;2.95;;;1.30;;
67675;SDS011;54456;48.436;10.028;2024-01-15T12:38:44;5.60;;;1.57;;
67675;SDS011;54456;48.436;10.028;2024-01-15T12:40:18;5.00;;;1.30;;
67675;SDS011;54456;48.436;10.028;2024-01-15T12:41:49;4.70;;;1.42;;
67675;SDS011;54456;48.436;10.028;2024-01-15T12:43:19;3.57;;;1.20;;
67675;SDS011;54456;48.436;10.028;2024-01-15T12:44:50;2.65;;;1.08;;
67675;SDS011;54456;48.436;10.028;2024-01-15T12:46:20;4.03;;;1.20;;
67675;SDS011;54456;48.436;10.028;2024-01-15T12:47:51;4.37;;;1.57;;
67675;SDS011;54456;48.436;10.028;2024-01-15T12:49:21;5.22;;;1.58;;
67675;SDS011;54456;48.436;10.028;2024-01-15T12:50:53;6.55;;;1.45;;
67675;SDS011;54456;48.436;10.028;2024-01-15T12:52:28;4.47;;;1.80;;
67675;SDS011;54456;48.436;10.028;2024-01-15T12:53:59;2.80;;;1.05;;